sensor_id;sensor_type;location;lat;lon;timestamp;P1;durP1;ratioP1;P2;durP2;ratioP2
61905;SDS011;47863;55.766;37.672;2023-03-14T00:01:55;3.00;;;1.73;;
61905;SDS011;47863;55.766;37.672;2023-03-14T00:04:21;3.72;;;1.85;;
61905;SDS011;47863;55.766;37.672;2023-03-14T00:06:46;5.38;;;2.20;;
61905;SDS011;47863;55.766;37.672;2023-03-14T00:09:12;3.53;;;2.00;;
61905;SDS011;47863;55.766;37.672;2023-03-14T00:11:40;4.15;;;1.88;;
61905;SDS011;47863;55.766;37.672;2023-03-14T00:14:06;4.03;;;1.73;;
61905;SDS011;47863;55.766;37.672;2023-03-14T00:16:31;3.30;;;1.27;;
61905;SDS011;47863;55.766;37.672;2023-03-14T00:18:58;3.53;;;1.38;;
61905;SDS011;47863;55.766;37.672;2023-03-14T00:21:24;4.22;;;1.70;;
61905;SDS011;47863;55.766;37.672;2023-03-14T00:23:50;6.03;;;1.70;;
61905;SDS011;47863;55.766;37.672;2023-03-14T00:26:16;2.95;;;1.50;;
61905;SDS011;47863;55.766;37.672;2023-03-14T00:28:44;4.80;;;1.80;;
61905;SDS011;47863;55.766;37.672;2023-03-14T00:31:11;1.95;;;1.00;;
61905;SDS011;47863;55.766;37.672;2023-03-14T00:33:39;4.40;;;1.88;;
61905;SDS011;47863;55.766;37.672;2023-03-14T00:36:05;2.72;;;1.48;;
61905;SDS011;47863;55.766;37.672;2023-03-14T00:38:34;3.42;;;1.67;;
61905;SDS011;47863;55.766;37.672;2023-03-14T00:41:02;5.30;;;1.52;;
61905;SDS011;47863;55.766;37.672;2023-03-14T00:43:29;3.30;;;1.38;;
61905;SDS011;47863;55.766;37.672;2023-03-14T00:45:55;4.38;;;1.65;;
61905;SDS011;47863;55.766;37.672;2023-03-14T00:48:20;4.40;;;1.60;;
61905;SDS011;47863;55.766;37.672;2023-03-14T00:50:46;2.78;;;1.35;;
61905;SDS011;47863;55.766;37.672;2023-03-14T00:53:12;3.58;;;1.40;;
61905;SDS011;47863;55.766;37.672;2023-03-14T00:55:38;4.75;;;1.98;;
61905;SDS011;47863;55.766;37.672;2023-03-14T00:58:05;5.53;;;2.03;;
61905;SDS011;47863;55.766;37.672;2023-03-14T01:00:30;4.40;;;1.70;;
61905;SDS011;47863;55.766;37.672;2023-03-14T01:02:57;1.60;;;1.05;;
61905;SDS011;47863;55.766;37.672;2023-03-14T01:05:22;1.50;;;0.95;;
61905;SDS011;47863;55.766;37.672;2023-03-14T01:07:48;2.53;;;1.38;;
61905;SDS011;47863;55.766;37.672;2023-03-14T01:10:14;3.20;;;1.30;;
61905;SDS011;47863;55.766;37.672;2023-03-14T01:12:40;3.33;;;0.90;;
61905;SDS011;47863;55.766;37.672;2023-03-14T01:15:06;2.25;;;1.30;;
61905;SDS011;47863;55.766;37.672;2023-03-14T01:17:32;3.28;;;1.58;;
61905;SDS011;47863;55.766;37.672;2023-03-14T01:19:59;1.35;;;0.60;;
61905;SDS011;47863;55.766;37.672;2023-03-14T01:22:25;3.38;;;1.20;;
61905;SDS011;47863;55.766;37.672;2023-03-14T01:24:51;3.05;;;1.20;;
61905;SDS011;47863;55.766;37.672;2023-03-14T01:27:16;3.47;;;1.90;;
61905;SDS011;47863;55.766;37.672;2023-03-14T01:29:42;2.55;;;0.95;;
61905;SDS011;47863;55.766;37.672;2023-03-14T01:32:07;5.38;;;1.50;;
61905;SDS011;47863;55.766;37.672;2023-03-14T01:34:33;3.80;;;1.30;;
61905;SDS011;47863;55.766;37.672;2023-03-14T01:36:59;1.88;;;1.23;;
61905;SDS011;47863;55.766;37.672;2023-03-14T01:39:24;4.00;;;1.50;;
61905;SDS011;47863;55.766;37.672;2023-03-14T01:41:50;2.85;;;1.30;;
61905;SDS011;47863;55.766;37.672;2023-03-14T01:44:15;2.78;;;1.58;;
61905;SDS011;47863;55.766;37.672;2023-03-14T01:46:41;2.90;;;0.98;;
61905;SDS011;47863;55.766;37.672;2023-03-14T01:49:10;2.80;;;1.65;;
61905;SDS011;47863;55.766;37.672;2023-03-14T01:59:51;7.22;;;2.35;;
61905;SDS011;47863;55.766;37.672;2023-03-14T02:02:21;3.83;;;2.10;;
61905;SDS011;47863;55.766;37.672;2023-03-14T02:04:49;4.90;;;1.80;;
61905;SDS011;47863;55.766;37.672;2023-03-14T02:07:27;4.82;;;2.00;;
61905;SDS011;47863;55.766;37.672;2023-03-14T02:09:58;4.10;;;1.75;;
61905;SDS011;47863;55.766;37.672;2023-03-14T02:12:25;3.03;;;1.73;;
61905;SDS011;47863;55.766;37.672;2023-03-14T02:14:51;3.88;;;1.70;;
61905;SDS011;47863;55.766;37.672;2023-03-14T02:17:17;5.13;;;2.00;;
61905;SDS011;47863;55.766;37.672;2023-03-14T02:22:50;2.72;;;1.63;;
61905;SDS011;47863;55.766;37.672;2023-03-14T02:25:21;6.20;;;2.50;;
61905;SDS011;47863;55.766;37.672;2023-03-14T02:27:51;5.60;;;2.63;;
61905;SDS011;47863;55.766;37.672;2023-03-14T02:30:21;4.97;;;2.47;;
61905;SDS011;47863;55.766;37.672;2023-03-14T02:33:04;6.28;;;2.17;;
61905;SDS011;47863;55.766;37.672;2023-03-14T02:35:43;7.40;;;3.08;;
61905;SDS011;47863;55.766;37.672;2023-03-14T02:38:27;4.15;;;2.30;;
61905;SDS011;47863;55.766;37.672;2023-03-14T02:40:58;3.72;;;1.75;;
61905;SDS011;47863;55.766;37.672;2023-03-14T02:43:24;4.60;;;2.60;;
61905;SDS011;47863;55.766;37.672;2023-03-14T02:45:50;4.75;;;2.50;;
61905;SDS011;47863;55.766;37.672;2023-03-14T02:48:21;6.40;;;2.58;;
61905;SDS011;47863;55.766;37.672;2023-03-14T02:50:51;5.70;;;2.78;;
61905;SDS011;47863;55.766;37.672;2023-03-14T02:53:20;5.55;;;2.42;;
61905;SDS011;47863;55.766;37.672;2023-03-14T02:55:50;7.38;;;2.92;;
61905;SDS011;47863;55.766;37.672;2023-03-14T02:58:16;4.88;;;2.03;;
61905;SDS011;47863;55.766;37.672;2023-03-14T03:00:42;6.05;;;2.85;;
61905;SDS011;47863;55.766;37.672;2023-03-14T03:03:08;6.60;;;2.50;;
61905;SDS011;47863;55.766;37.672;2023-03-14T03:05:33;5.25;;;2.78;;
61905;SDS011;47863;55.766;37.672;2023-03-14T03:07:59;6.28;;;3.08;;
61905;SDS011;47863;55.766;37.672;2023-03-14T03:10:25;4.97;;;2.35;;
61905;SDS011;47863;55.766;37.672;2023-03-14T03:12:51;8.07;;;3.33;;
61905;SDS011;47863;55.766;37.672;2023-03-14T03:15:17;6.85;;;2.97;;
61905;SDS011;47863;55.766;37.672;2023-03-14T03:17:42;8.50;;;3.83;;
61905;SDS011;47863;55.766;37.672;2023-03-14T03:20:08;6.40;;;3.20;;
61905;SDS011;47863;55.766;37.672;2023-03-14T03:22:35;6.93;;;3.63;;
61905;SDS011;47863;55.766;37.672;2023-03-14T03:25:02;6.25;;;3.30;;
61905;SDS011;47863;55.766;37.672;2023-03-14T03:27:32;5.28;;;2.88;;
61905;SDS011;47863;55.766;37.672;2023-03-14T03:29:59;7.65;;;3.40;;
61905;SDS011;47863;55.766;37.672;2023-03-14T03:32:25;4.78;;;2.17;;
61905;SDS011;47863;55.766;37.672;2023-03-14T03:34:51;7.80;;;3.22;;
61905;SDS011;47863;55.766;37.672;2023-03-14T03:37:17;7.78;;;3.47;;
61905;SDS011;47863;55.766;37.672;2023-03-14T03:39:43;5.20;;;2.53;;
61905;SDS011;47863;55.766;37.672;2023-03-14T03:42:08;4.60;;;1.95;;
61905;SDS011;47863;55.766;37.672;2023-03-14T03:44:34;8.77;;;3.47;;
61905;SDS011;47863;55.766;37.672;2023-03-14T03:46:59;5.82;;;3.15;;
61905;SDS011;47863;55.766;37.672;2023-03-14T03:49:28;5.20;;;2.75;;
61905;SDS011;47863;55.766;37.672;2023-03-14T03:51:55;6.30;;;3.28;;
61905;SDS011;47863;55.766;37.672;2023-03-14T03:54:20;8.77;;;3.88;;
61905;SDS011;47863;55.766;37.672;2023-03-14T03:56:46;5.60;;;3.40;;
61905;SDS011;47863;55.766;37.672;2023-03-14T03:59:11;8.48;;;2.42;;
61905;SDS011;47863;55.766;37.672;2023-03-14T04:01:37;7.90;;;4.22;;
61905;SDS011;47863;55.766;37.672;2023-03-14T04:04:02;10.48;;;4.57;;
61905;SDS011;47863;55.766;37.672;2023-03-14T04:06:28;8.40;;;4.60;;
61905;SDS011;47863;55.766;37.672;2023-03-14T04:08:54;7.97;;;4.32;;
61905;SDS011;47863;55.766;37.672;2023-03-14T04:11:19;6.57;;;4.07;;
61905;SDS011;47863;55.766;37.672;2023-03-14T04:13:45;7.65;;;4.05;;
61905;SDS011;47863;55.766;37.672;2023-03-14T04:16:14;5.05;;;3.10;;
61905;SDS011;47863;55.766;37.672;2023-03-14T04:18:42;6.80;;;3.60;;
61905;SDS011;47863;55.766;37.672;2023-03-14T04:21:08;9.98;;;3.55;;
61905;SDS011;47863;55.766;37.672;2023-03-14T04:23:33;9.20;;;5.07;;
61905;SDS011;47863;55.766;37.672;2023-03-14T04:25:59;8.63;;;4.38;;
61905;SDS011;47863;55.766;37.672;2023-03-14T04:28:25;4.47;;;2.80;;
61905;SDS011;47863;55.766;37.672;2023-03-14T04:30:50;8.43;;;4.85;;
61905;SDS011;47863;55.766;37.672;2023-03-14T04:33:16;10.20;;;5.15;;
61905;SDS011;47863;55.766;37.672;2023-03-14T04:35:45;6.40;;;4.10;;
61905;SDS011;47863;55.766;37.672;2023-03-14T04:38:11;7.40;;;3.17;;
61905;SDS011;47863;55.766;37.672;2023-03-14T04:40:37;8.98;;;3.60;;
61905;SDS011;47863;55.766;37.672;2023-03-14T04:43:04;7.15;;;3.72;;
61905;SDS011;47863;55.766;37.672;2023-03-14T04:45:29;7.68;;;3.85;;
61905;SDS011;47863;55.766;37.672;2023-03-14T04:47:55;7.28;;;4.00;;
61905;SDS011;47863;55.766;37.672;2023-03-14T04:50:20;9.50;;;4.78;;
61905;SDS011;47863;55.766;37.672;2023-03-14T04:52:46;9.55;;;4.30;;
61905;SDS011;47863;55.766;37.672;2023-03-14T04:55:11;11.00;;;3.95;;
61905;SDS011;47863;55.766;37.672;2023-03-14T04:57:38;8.18;;;4.38;;
61905;SDS011;47863;55.766;37.672;2023-03-14T05:00:03;8.35;;;4.78;;
61905;SDS011;47863;55.766;37.672;2023-03-14T05:02:33;3.65;;;2.20;;
61905;SDS011;47863;55.766;37.672;2023-03-14T05:04:59;7.20;;;4.85;;
61905;SDS011;47863;55.766;37.672;2023-03-14T05:07:25;7.20;;;3.33;;
61905;SDS011;47863;55.766;37.672;2023-03-14T05:09:50;10.45;;;4.65;;
61905;SDS011;47863;55.766;37.672;2023-03-14T05:12:17;7.78;;;3.20;;
61905;SDS011;47863;55.766;37.672;2023-03-14T05:14:43;7.78;;;4.07;;
61905;SDS011;47863;55.766;37.672;2023-03-14T05:17:08;8.35;;;4.68;;
61905;SDS011;47863;55.766;37.672;2023-03-14T05:19:34;11.07;;;4.07;;
61905;SDS011;47863;55.766;37.672;2023-03-14T05:22:00;9.63;;;4.40;;
61905;SDS011;47863;55.766;37.672;2023-03-14T05:24:26;10.35;;;4.78;;
61905;SDS011;47863;55.766;37.672;2023-03-14T05:26:51;14.32;;;5.75;;
61905;SDS011;47863;55.766;37.672;2023-03-14T05:29:18;10.40;;;4.38;;
61905;SDS011;47863;55.766;37.672;2023-03-14T05:31:43;10.13;;;4.60;;
61905;SDS011;47863;55.766;37.672;2023-03-14T05:34:09;11.65;;;4.80;;
61905;SDS011;47863;55.766;37.672;2023-03-14T05:36:34;6.40;;;3.45;;
61905;SDS011;47863;55.766;37.672;2023-03-14T05:39:00;9.32;;;4.50;;
61905;SDS011;47863;55.766;37.672;2023-03-14T05:41:26;9.80;;;4.50;;
61905;SDS011;47863;55.766;37.672;2023-03-14T05:43:51;8.88;;;4.05;;
61905;SDS011;47863;55.766;37.672;2023-03-14T05:46:17;12.48;;;5.05;;
61905;SDS011;47863;55.766;37.672;2023-03-14T05:48:42;6.13;;;2.75;;
61905;SDS011;47863;55.766;37.672;2023-03-14T05:51:08;5.78;;;3.28;;
61905;SDS011;47863;55.766;37.672;2023-03-14T05:53:33;6.90;;;3.78;;
61905;SDS011;47863;55.766;37.672;2023-03-14T05:55:59;8.73;;;4.85;;
61905;SDS011;47863;55.766;37.672;2023-03-14T05:58:24;8.32;;;3.83;;
61905;SDS011;47863;55.766;37.672;2023-03-14T06:00:50;9.35;;;3.83;;
61905;SDS011;47863;55.766;37.672;2023-03-14T06:03:16;5.80;;;3.35;;
61905;SDS011;47863;55.766;37.672;2023-03-14T06:05:41;5.95;;;2.47;;
61905;SDS011;47863;55.766;37.672;2023-03-14T06:08:07;7.20;;;3.58;;
61905;SDS011;47863;55.766;37.672;2023-03-14T06:10:34;5.25;;;2.95;;
61905;SDS011;47863;55.766;37.672;2023-03-14T06:13:00;7.68;;;3.03;;
61905;SDS011;47863;55.766;37.672;2023-03-14T06:15:25;8.85;;;3.72;;
61905;SDS011;47863;55.766;37.672;2023-03-14T06:17:53;6.13;;;3.08;;
61905;SDS011;47863;55.766;37.672;2023-03-14T06:20:20;4.35;;;2.53;;
61905;SDS011;47863;55.766;37.672;2023-03-14T06:22:45;6.32;;;3.17;;
61905;SDS011;47863;55.766;37.672;2023-03-14T06:25:11;8.52;;;3.72;;
61905;SDS011;47863;55.766;37.672;2023-03-14T06:27:38;4.90;;;2.20;;
61905;SDS011;47863;55.766;37.672;2023-03-14T06:30:03;6.18;;;3.15;;
61905;SDS011;47863;55.766;37.672;2023-03-14T06:32:29;7.72;;;3.03;;
61905;SDS011;47863;55.766;37.672;2023-03-14T06:34:55;7.43;;;3.30;;
61905;SDS011;47863;55.766;37.672;2023-03-14T06:37:22;6.55;;;3.70;;
61905;SDS011;47863;55.766;37.672;2023-03-14T06:39:47;5.97;;;2.97;;
61905;SDS011;47863;55.766;37.672;2023-03-14T06:42:13;8.82;;;3.08;;
61905;SDS011;47863;55.766;37.672;2023-03-14T06:44:38;5.93;;;2.90;;
61905;SDS011;47863;55.766;37.672;2023-03-14T06:47:04;6.82;;;2.50;;
61905;SDS011;47863;55.766;37.672;2023-03-14T06:49:29;7.40;;;3.10;;
61905;SDS011;47863;55.766;37.672;2023-03-14T06:51:55;5.53;;;2.60;;
61905;SDS011;47863;55.766;37.672;2023-03-14T06:54:21;7.03;;;2.83;;
61905;SDS011;47863;55.766;37.672;2023-03-14T06:56:46;7.05;;;2.95;;
61905;SDS011;47863;55.766;37.672;2023-03-14T06:59:12;5.95;;;2.88;;
61905;SDS011;47863;55.766;37.672;2023-03-14T07:01:37;3.92;;;1.98;;
61905;SDS011;47863;55.766;37.672;2023-03-14T07:04:03;7.85;;;3.35;;
61905;SDS011;47863;55.766;37.672;2023-03-14T07:06:29;5.70;;;2.65;;
61905;SDS011;47863;55.766;37.672;2023-03-14T07:08:54;4.45;;;2.30;;
61905;SDS011;47863;55.766;37.672;2023-03-14T07:11:21;5.05;;;2.20;;
61905;SDS011;47863;55.766;37.672;2023-03-14T07:13:47;6.15;;;2.72;;
61905;SDS011;47863;55.766;37.672;2023-03-14T07:16:13;4.70;;;2.65;;
61905;SDS011;47863;55.766;37.672;2023-03-14T07:18:38;6.05;;;3.17;;
61905;SDS011;47863;55.766;37.672;2023-03-14T07:21:07;7.60;;;3.45;;
61905;SDS011;47863;55.766;37.672;2023-03-14T07:23:34;8.15;;;2.63;;
61905;SDS011;47863;55.766;37.672;2023-03-14T07:26:00;5.57;;;2.75;;
61905;SDS011;47863;55.766;37.672;2023-03-14T07:28:26;10.10;;;4.00;;
61905;SDS011;47863;55.766;37.672;2023-03-14T07:30:52;5.15;;;2.33;;
61905;SDS011;47863;55.766;37.672;2023-03-14T07:33:18;8.77;;;2.90;;
61905;SDS011;47863;55.766;37.672;2023-03-14T07:35:43;4.93;;;2.33;;
61905;SDS011;47863;55.766;37.672;2023-03-14T07:38:09;4.38;;;1.85;;
61905;SDS011;47863;55.766;37.672;2023-03-14T07:40:34;6.20;;;3.13;;
61905;SDS011;47863;55.766;37.672;2023-03-14T07:43:00;5.40;;;2.35;;
61905;SDS011;47863;55.766;37.672;2023-03-14T07:45:25;4.40;;;2.50;;
61905;SDS011;47863;55.766;37.672;2023-03-14T07:47:51;7.55;;;3.10;;
61905;SDS011;47863;55.766;37.672;2023-03-14T07:50:16;4.18;;;2.10;;
61905;SDS011;47863;55.766;37.672;2023-03-14T07:52:42;5.20;;;2.58;;
61905;SDS011;47863;55.766;37.672;2023-03-14T07:55:08;3.25;;;1.60;;
61905;SDS011;47863;55.766;37.672;2023-03-14T07:57:33;6.05;;;3.15;;
61905;SDS011;47863;55.766;37.672;2023-03-14T07:59:59;5.88;;;2.45;;
61905;SDS011;47863;55.766;37.672;2023-03-14T08:02:25;3.85;;;2.15;;
61905;SDS011;47863;55.766;37.672;2023-03-14T08:04:50;5.80;;;2.60;;
61905;SDS011;47863;55.766;37.672;2023-03-14T08:07:16;7.47;;;2.75;;
61905;SDS011;47863;55.766;37.672;2023-03-14T08:09:42;6.80;;;3.20;;
61905;SDS011;47863;55.766;37.672;2023-03-14T08:12:07;5.18;;;2.63;;
61905;SDS011;47863;55.766;37.672;2023-03-14T08:14:33;7.30;;;2.33;;
61905;SDS011;47863;55.766;37.672;2023-03-14T08:16:58;5.15;;;2.67;;
61905;SDS011;47863;55.766;37.672;2023-03-14T08:19:24;5.18;;;2.67;;
61905;SDS011;47863;55.766;37.672;2023-03-14T08:21:50;7.65;;;3.15;;
61905;SDS011;47863;55.766;37.672;2023-03-14T08:24:15;6.15;;;2.97;;
61905;SDS011;47863;55.766;37.672;2023-03-14T08:26:41;6.72;;;2.38;;
61905;SDS011;47863;55.766;37.672;2023-03-14T08:29:07;7.53;;;3.08;;
61905;SDS011;47863;55.766;37.672;2023-03-14T08:31:34;8.25;;;3.40;;
61905;SDS011;47863;55.766;37.672;2023-03-14T08:34:00;4.20;;;2.50;;
61905;SDS011;47863;55.766;37.672;2023-03-14T08:36:27;7.68;;;3.22;;
61905;SDS011;47863;55.766;37.672;2023-03-14T08:38:53;7.65;;;3.90;;
61905;SDS011;47863;55.766;37.672;2023-03-14T08:41:19;8.85;;;2.78;;
61905;SDS011;47863;55.766;37.672;2023-03-14T08:43:44;8.60;;;3.35;;
61905;SDS011;47863;55.766;37.672;2023-03-14T08:46:10;7.05;;;2.80;;
61905;SDS011;47863;55.766;37.672;2023-03-14T08:48:35;6.80;;;4.15;;
61905;SDS011;47863;55.766;37.672;2023-03-14T08:51:04;7.63;;;3.20;;
61905;SDS011;47863;55.766;37.672;2023-03-14T08:53:35;6.95;;;2.92;;
61905;SDS011;47863;55.766;37.672;2023-03-14T08:56:01;5.65;;;2.97;;
61905;SDS011;47863;55.766;37.672;2023-03-14T08:58:28;8.68;;;3.30;;
61905;SDS011;47863;55.766;37.672;2023-03-14T09:00:54;6.45;;;3.08;;
61905;SDS011;47863;55.766;37.672;2023-03-14T09:03:20;4.68;;;2.67;;
61905;SDS011;47863;55.766;37.672;2023-03-14T09:05:48;6.38;;;3.53;;
61905;SDS011;47863;55.766;37.672;2023-03-14T09:08:15;6.63;;;3.70;;
61905;SDS011;47863;55.766;37.672;2023-03-14T09:10:40;9.05;;;3.88;;
61905;SDS011;47863;55.766;37.672;2023-03-14T09:13:06;7.22;;;3.20;;
61905;SDS011;47863;55.766;37.672;2023-03-14T09:15:31;8.80;;;3.78;;
61905;SDS011;47863;55.766;37.672;2023-03-14T09:17:57;6.78;;;2.35;;
61905;SDS011;47863;55.766;37.672;2023-03-14T09:20:23;10.15;;;3.72;;
61905;SDS011;47863;55.766;37.672;2023-03-14T09:22:48;5.93;;;3.00;;
61905;SDS011;47863;55.766;37.672;2023-03-14T09:25:14;6.55;;;3.13;;
61905;SDS011;47863;55.766;37.672;2023-03-14T09:27:39;7.97;;;2.70;;
61905;SDS011;47863;55.766;37.672;2023-03-14T09:30:05;6.50;;;2.83;;
61905;SDS011;47863;55.766;37.672;2023-03-14T09:32:31;5.60;;;3.33;;
61905;SDS011;47863;55.766;37.672;2023-03-14T09:34:57;5.45;;;2.78;;
61905;SDS011;47863;55.766;37.672;2023-03-14T09:37:23;5.03;;;2.53;;
61905;SDS011;47863;55.766;37.672;2023-03-14T09:39:48;11.30;;;2.28;;
61905;SDS011;47863;55.766;37.672;2023-03-14T09:42:14;5.97;;;3.10;;
61905;SDS011;47863;55.766;37.672;2023-03-14T09:47:18;5.03;;;2.63;;
61905;SDS011;47863;55.766;37.672;2023-03-14T09:49:45;9.15;;;3.45;;
61905;SDS011;47863;55.766;37.672;2023-03-14T09:57:27;6.07;;;2.70;;
61905;SDS011;47863;55.766;37.672;2023-03-14T09:59:58;5.82;;;2.67;;
61905;SDS011;47863;55.766;37.672;2023-03-14T10:02:38;8.25;;;3.13;;
61905;SDS011;47863;55.766;37.672;2023-03-14T10:05:14;6.65;;;3.13;;
61905;SDS011;47863;55.766;37.672;2023-03-14T10:07:42;6.30;;;2.92;;
61905;SDS011;47863;55.766;37.672;2023-03-14T10:10:09;6.03;;;3.30;;
61905;SDS011;47863;55.766;37.672;2023-03-14T10:12:38;12.52;;;3.28;;
61905;SDS011;47863;55.766;37.672;2023-03-14T10:15:05;7.50;;;3.47;;
61905;SDS011;47863;55.766;37.672;2023-03-14T10:17:43;4.57;;;2.30;;
61905;SDS011;47863;55.766;37.672;2023-03-14T10:23:16;5.43;;;2.60;;
61905;SDS011;47863;55.766;37.672;2023-03-14T10:28:51;6.72;;;2.33;;
61905;SDS011;47863;55.766;37.672;2023-03-14T10:31:18;6.85;;;3.08;;
61905;SDS011;47863;55.766;37.672;2023-03-14T10:34:00;10.15;;;2.33;;
61905;SDS011;47863;55.766;37.672;2023-03-14T10:36:29;5.72;;;2.80;;
61905;SDS011;47863;55.766;37.672;2023-03-14T10:42:04;6.45;;;3.10;;
61905;SDS011;47863;55.766;37.672;2023-03-14T10:44:48;4.93;;;2.90;;
61905;SDS011;47863;55.766;37.672;2023-03-14T10:47:21;6.75;;;2.60;;
61905;SDS011;47863;55.766;37.672;2023-03-14T10:49:49;9.85;;;3.60;;
61905;SDS011;47863;55.766;37.672;2023-03-14T10:52:17;10.60;;;2.75;;
61905;SDS011;47863;55.766;37.672;2023-03-14T10:54:58;7.57;;;3.42;;
61905;SDS011;47863;55.766;37.672;2023-03-14T10:57:26;8.82;;;3.70;;
61905;SDS011;47863;55.766;37.672;2023-03-14T10:59:53;9.60;;;3.78;;
61905;SDS011;47863;55.766;37.672;2023-03-14T11:07:21;7.63;;;3.57;;
61905;SDS011;47863;55.766;37.672;2023-03-14T11:23:24;9.98;;;3.40;;
61905;SDS011;47863;55.766;37.672;2023-03-14T11:29:02;8.60;;;3.50;;
61905;SDS011;47863;55.766;37.672;2023-03-14T11:31:43;4.70;;;2.53;;
61905;SDS011;47863;55.766;37.672;2023-03-14T11:36:46;5.35;;;2.72;;
61905;SDS011;47863;55.766;37.672;2023-03-14T11:41:51;5.68;;;3.30;;
61905;SDS011;47863;55.766;37.672;2023-03-14T11:47:00;5.25;;;2.47;;
61905;SDS011;47863;55.766;37.672;2023-03-14T11:49:45;5.13;;;2.47;;
61905;SDS011;47863;55.766;37.672;2023-03-14T11:54:54;5.93;;;2.80;;
61905;SDS011;47863;55.766;37.672;2023-03-14T11:57:28;8.65;;;3.00;;
61905;SDS011;47863;55.766;37.672;2023-03-14T12:02:46;5.68;;;2.35;;
61905;SDS011;47863;55.766;37.672;2023-03-14T12:10:51;5.82;;;2.92;;
61905;SDS011;47863;55.766;37.672;2023-03-14T12:13:19;5.70;;;2.78;;
61905;SDS011;47863;55.766;37.672;2023-03-14T12:15:55;5.28;;;2.75;;
61905;SDS011;47863;55.766;37.672;2023-03-14T12:20:56;7.90;;;3.55;;
61905;SDS011;47863;55.766;37.672;2023-03-14T12:23:25;6.00;;;2.47;;
61905;SDS011;47863;55.766;37.672;2023-03-14T12:26:06;5.07;;;2.88;;
61905;SDS011;47863;55.766;37.672;2023-03-14T12:28:33;6.47;;;2.92;;
61905;SDS011;47863;55.766;37.672;2023-03-14T12:31:34;5.43;;;3.40;;
61905;SDS011;47863;55.766;37.672;2023-03-14T12:42:00;4.65;;;3.15;;
61905;SDS011;47863;55.766;37.672;2023-03-14T12:46:58;7.57;;;3.47;;
61905;SDS011;47863;55.766;37.672;2023-03-14T12:49:44;6.97;;;3.08;;
61905;SDS011;47863;55.766;37.672;2023-03-14T12:52:30;5.25;;;2.83;;
61905;SDS011;47863;55.766;37.672;2023-03-14T12:55:19;7.55;;;3.28;;
61905;SDS011;47863;55.766;37.672;2023-03-14T12:57:59;5.95;;;2.80;;
61905;SDS011;47863;55.766;37.672;2023-03-14T13:00:55;6.82;;;3.65;;
61905;SDS011;47863;55.766;37.672;2023-03-14T13:03:25;6.03;;;3.22;;
61905;SDS011;47863;55.766;37.672;2023-03-14T13:06:02;6.65;;;2.92;;
61905;SDS011;47863;55.766;37.672;2023-03-14T13:08:37;8.15;;;2.97;;
61905;SDS011;47863;55.766;37.672;2023-03-14T13:11:04;5.63;;;2.60;;
61905;SDS011;47863;55.766;37.672;2023-03-14T13:13:34;6.88;;;3.33;;
61905;SDS011;47863;55.766;37.672;2023-03-14T13:16:02;4.97;;;2.47;;
61905;SDS011;47863;55.766;37.672;2023-03-14T13:18:40;7.30;;;3.67;;
61905;SDS011;47863;55.766;37.672;2023-03-14T13:26:43;8.60;;;3.10;;
61905;SDS011;47863;55.766;37.672;2023-03-14T13:29:15;6.18;;;3.03;;
61905;SDS011;47863;55.766;37.672;2023-03-14T13:31:50;8.93;;;4.07;;
61905;SDS011;47863;55.766;37.672;2023-03-14T13:34:17;4.88;;;2.72;;
61905;SDS011;47863;55.766;37.672;2023-03-14T13:36:43;6.82;;;2.60;;
61905;SDS011;47863;55.766;37.672;2023-03-14T13:39:10;7.63;;;3.22;;
61905;SDS011;47863;55.766;37.672;2023-03-14T13:41:39;7.85;;;3.15;;
61905;SDS011;47863;55.766;37.672;2023-03-14T13:44:06;5.70;;;2.47;;
61905;SDS011;47863;55.766;37.672;2023-03-14T13:46:34;6.97;;;2.90;;
61905;SDS011;47863;55.766;37.672;2023-03-14T13:49:02;8.32;;;3.00;;
61905;SDS011;47863;55.766;37.672;2023-03-14T13:51:29;6.28;;;2.88;;
61905;SDS011;47863;55.766;37.672;2023-03-14T13:54:00;6.68;;;2.90;;
61905;SDS011;47863;55.766;37.672;2023-03-14T13:56:27;6.43;;;3.22;;
61905;SDS011;47863;55.766;37.672;2023-03-14T13:58:54;4.32;;;2.65;;
61905;SDS011;47863;55.766;37.672;2023-03-14T14:04:02;7.53;;;3.20;;
61905;SDS011;47863;55.766;37.672;2023-03-14T14:06:34;5.53;;;2.65;;
61905;SDS011;47863;55.766;37.672;2023-03-14T14:09:03;5.05;;;2.40;;
61905;SDS011;47863;55.766;37.672;2023-03-14T14:16:55;5.90;;;3.38;;
61905;SDS011;47863;55.766;37.672;2023-03-14T14:19:23;5.57;;;3.25;;
61905;SDS011;47863;55.766;37.672;2023-03-14T14:21:52;5.95;;;3.30;;
61905;SDS011;47863;55.766;37.672;2023-03-14T14:24:28;7.18;;;3.10;;
61905;SDS011;47863;55.766;37.672;2023-03-14T14:27:00;6.00;;;3.10;;
61905;SDS011;47863;55.766;37.672;2023-03-14T14:29:43;8.23;;;3.25;;
61905;SDS011;47863;55.766;37.672;2023-03-14T14:32:13;5.45;;;2.83;;
61905;SDS011;47863;55.766;37.672;2023-03-14T14:34:44;6.00;;;2.83;;
61905;SDS011;47863;55.766;37.672;2023-03-14T14:37:25;6.78;;;3.17;;
61905;SDS011;47863;55.766;37.672;2023-03-14T14:39:54;6.20;;;2.88;;
61905;SDS011;47863;55.766;37.672;2023-03-14T14:42:24;5.88;;;2.97;;
61905;SDS011;47863;55.766;37.672;2023-03-14T14:44:52;7.40;;;2.90;;
61905;SDS011;47863;55.766;37.672;2023-03-14T14:47:20;6.03;;;2.88;;
61905;SDS011;47863;55.766;37.672;2023-03-14T14:49:49;6.82;;;3.30;;
61905;SDS011;47863;55.766;37.672;2023-03-14T14:52:17;3.78;;;1.98;;
61905;SDS011;47863;55.766;37.672;2023-03-14T14:54:45;5.93;;;3.22;;
61905;SDS011;47863;55.766;37.672;2023-03-14T14:57:17;8.25;;;3.63;;
61905;SDS011;47863;55.766;37.672;2023-03-14T14:59:47;4.85;;;2.70;;
61905;SDS011;47863;55.766;37.672;2023-03-14T15:02:26;6.38;;;2.53;;
61905;SDS011;47863;55.766;37.672;2023-03-14T15:05:05;5.90;;;2.90;;
61905;SDS011;47863;55.766;37.672;2023-03-14T15:07:37;7.20;;;2.95;;
61905;SDS011;47863;55.766;37.672;2023-03-14T15:10:02;8.27;;;3.60;;
61905;SDS011;47863;55.766;37.672;2023-03-14T15:12:28;8.80;;;3.33;;
61905;SDS011;47863;55.766;37.672;2023-03-14T15:14:53;8.73;;;3.20;;
61905;SDS011;47863;55.766;37.672;2023-03-14T15:17:22;7.15;;;3.20;;
61905;SDS011;47863;55.766;37.672;2023-03-14T15:19:48;8.05;;;2.70;;
61905;SDS011;47863;55.766;37.672;2023-03-14T15:22:14;6.93;;;3.25;;
61905;SDS011;47863;55.766;37.672;2023-03-14T15:24:40;6.20;;;2.97;;
61905;SDS011;47863;55.766;37.672;2023-03-14T15:27:09;7.72;;;3.03;;
61905;SDS011;47863;55.766;37.672;2023-03-14T15:29:41;4.32;;;2.35;;
61905;SDS011;47863;55.766;37.672;2023-03-14T15:32:16;5.85;;;3.15;;
61905;SDS011;47863;55.766;37.672;2023-03-14T15:34:43;8.55;;;3.58;;
61905;SDS011;47863;55.766;37.672;2023-03-14T15:37:12;4.72;;;2.25;;
61905;SDS011;47863;55.766;37.672;2023-03-14T15:39:41;8.65;;;3.53;;
61905;SDS011;47863;55.766;37.672;2023-03-14T15:42:09;4.97;;;2.75;;
61905;SDS011;47863;55.766;37.672;2023-03-14T15:44:35;10.52;;;3.58;;
61905;SDS011;47863;55.766;37.672;2023-03-14T15:47:00;6.85;;;2.75;;
61905;SDS011;47863;55.766;37.672;2023-03-14T15:49:27;6.90;;;3.50;;
61905;SDS011;47863;55.766;37.672;2023-03-14T15:51:53;7.38;;;2.88;;
61905;SDS011;47863;55.766;37.672;2023-03-14T15:54:18;8.13;;;3.13;;
61905;SDS011;47863;55.766;37.672;2023-03-14T15:56:44;5.38;;;3.00;;
61905;SDS011;47863;55.766;37.672;2023-03-14T15:59:10;8.25;;;3.22;;
61905;SDS011;47863;55.766;37.672;2023-03-14T16:01:36;4.57;;;2.72;;
61905;SDS011;47863;55.766;37.672;2023-03-14T16:04:01;4.28;;;2.40;;
61905;SDS011;47863;55.766;37.672;2023-03-14T16:06:27;7.68;;;3.10;;
61905;SDS011;47863;55.766;37.672;2023-03-14T16:08:53;7.60;;;3.22;;
61905;SDS011;47863;55.766;37.672;2023-03-14T16:11:19;7.82;;;3.50;;
61905;SDS011;47863;55.766;37.672;2023-03-14T16:13:45;6.55;;;2.53;;